Time;durP1;ratioP1;P1;durP2;ratioP2;P2;SDS_P1;SDS_P2;PMS_P1;PMS_P2;Temp;Humidity;BMP_temperature;BMP_pressure;BME280_temperature;BME280_humidity;BME280_pressure;Samples;Min_cycle;Max_cycle;Signal;HPM_P1;HPM_P2
2020/12/03 00:00:26;;;;;;;44.03;18.70;;;;;;;-1.00;83.63;98630.91;5136621;27;20047;-81
2020/12/03 00:02:53;;;;;;;42.37;16.77;;;;;;;-1.03;83.94;98633.81;5149298;27;20059;-81
2020/12/03 00:05:19;;;;;;;46.83;17.97;;;;;;;-1.03;83.96;98642.66;5148004;27;20051;-81
2020/12/03 00:07:45;;;;;;;47.33;19.53;;;;;;;-1.05;83.82;98635.75;5135371;27;20047;-80
2020/12/03 00:10:12;;;;;;;36.73;17.30;;;;;;;-0.94;84.28;98649.91;5136704;27;20073;-80
2020/12/03 00:12:38;;;;;;;47.60;19.10;;;;;;;-1.02;83.73;98619.47;5149305;27;20051;-80
2020/12/03 00:15:05;;;;;;;47.40;18.47;;;;;;;-0.86;83.47;98635.94;5131685;27;20058;-80
2020/12/03 00:17:32;;;;;;;48.50;18.40;;;;;;;-0.88;83.53;98626.38;5134193;27;20047;-81
2020/12/03 00:20:15;;;;;;;48.27;18.90;;;;;;;-0.95;83.75;98618.88;5140936;27;20043;-80
2020/12/03 00:22:42;;;;;;;46.67;19.50;;;;;;;-0.99;83.01;98597.91;5133352;27;20051;-81
2020/12/03 00:25:08;;;;;;;44.37;16.77;;;;;;;-0.98;83.41;98605.81;5140370;27;20082;-81
2020/12/03 00:27:34;;;;;;;48.50;19.27;;;;;;;-1.07;83.99;98606.53;5147000;27;20548;-81
2020/12/03 00:30:00;;;;;;;43.50;18.23;;;;;;;-1.07;84.44;98618.06;5133943;27;20482;-81
2020/12/03 00:32:27;;;;;;;42.20;18.17;;;;;;;-0.98;84.11;98624.47;5134112;27;20043;-81
2020/12/03 00:34:54;;;;;;;46.83;18.17;;;;;;;-1.12;84.43;98590.06;5133923;27;20058;-80
2020/12/03 00:37:20;;;;;;;47.37;19.17;;;;;;;-1.02;84.56;98619.47;5148848;27;20050;-81
2020/12/03 00:39:46;;;;;;;48.10;18.80;;;;;;;-1.13;85.27;98599.88;5154754;27;20376;-81
2020/12/03 00:42:13;;;;;;;43.50;17.80;;;;;;;-1.18;85.54;98588.72;5142820;27;20043;-81
2020/12/03 00:44:39;;;;;;;49.40;18.53;;;;;;;-1.16;85.02;98599.28;5133790;27;20043;-81
2020/12/03 00:47:05;;;;;;;42.37;17.93;;;;;;;-1.04;85.30;98608.09;5139217;27;20053;-81
2020/12/03 00:49:32;;;;;;;46.50;16.63;;;;;;;-1.13;84.60;98591.88;5134454;27;20043;-81
2020/12/03 00:51:59;;;;;;;42.17;18.00;;;;;;;-0.94;84.72;98607.22;5137078;27;20078;-81
2020/12/03 00:54:25;;;;;;;49.13;19.80;;;;;;;-1.02;83.32;98567.00;5153697;27;20055;-81
2020/12/03 00:56:51;;;;;;;46.73;17.47;;;;;;;-1.09;83.36;98569.28;5154772;27;20055;-81
2020/12/03 00:59:18;;;;;;;49.17;20.10;;;;;;;-1.19;84.64;98568.38;5146034;27;20050;-81
2020/12/03 01:01:44;;;;;;;50.67;19.17;;;;;;;-1.05;84.46;98582.38;5134157;27;20050;-81
2020/12/03 01:04:11;;;;;;;42.87;17.27;;;;;;;-1.15;84.39;98584.97;5145432;27;20096;-81
2020/12/03 01:06:37;;;;;;;49.60;19.37;;;;;;;-1.00;84.54;98578.38;5154558;27;20043;-81
2020/12/03 01:09:04;;;;;;;41.03;18.17;;;;;;;-0.95;84.27;98578.84;5152664;27;20039;-81
2020/12/03 01:11:30;;;;;;;44.30;18.03;;;;;;;-0.95;84.67;98592.22;5152331;27;20111;-81
2020/12/03 01:13:57;;;;;;;45.43;19.50;;;;;;;-1.05;84.40;98569.03;5152763;27;20092;-81
2020/12/03 01:16:23;;;;;;;49.37;19.33;;;;;;;-1.02;84.04;98576.78;5152197;27;20046;-81
2020/12/03 01:18:50;;;;;;;45.70;19.10;;;;;;;-1.09;85.44;98568.47;5152410;27;20047;-81
2020/12/03 01:21:19;;;;;;;42.73;18.47;;;;;;;-0.99;83.94;98564.06;5148557;27;20047;-81
2020/12/03 01:23:45;;;;;;;46.60;18.93;;;;;;;-0.97;84.17;98564.78;5152596;27;20061;-81
2020/12/03 01:26:15;;;;;;;53.20;19.90;;;;;;;-0.84;83.55;98575.31;5150049;27;20091;-81
2020/12/03 01:28:41;;;;;;;;;;;;;;;-0.82;83.35;98569.84;5153606;27;20062;-81
2020/12/03 01:31:08;;;;;;;43.43;16.87;;;;;;;-0.89;83.12;98569.47;5142420;27;19920;-81
2020/12/03 01:33:35;;;;;;;44.80;19.07;;;;;;;-0.79;83.35;98567.75;5141248;27;20080;-81
2020/12/03 01:36:01;;;;;;;46.30;18.87;;;;;;;-0.75;82.93;98571.03;5153133;27;20323;-81
2020/12/03 01:38:27;;;;;;;45.30;19.13;;;;;;;-0.83;83.25;98563.63;5142046;27;20043;-81
2020/12/03 01:40:54;;;;;;;46.27;19.33;;;;;;;-1.02;83.14;98547.44;5142927;27;20046;-81
2020/12/03 01:43:21;;;;;;;47.37;19.00;;;;;;;-0.90;84.45;98562.47;5142972;27;20039;-81
2020/12/03 01:45:55;;;;;;;45.20;19.77;;;;;;;-0.81;83.30;98547.50;5137971;27;20051;-81
2020/12/03 01:48:42;;;;;;;48.60;18.30;;;;;;;-0.93;83.66;98515.53;5133337;27;20062;-81
2020/12/03 01:51:13;;;;;;;41.07;17.50;;;;;;;-0.96;83.47;98525.63;5132862;27;20043;-81
2020/12/03 01:53:40;;;;;;;44.40;18.67;;;;;;;-0.89;83.55;98532.13;5141145;27;20500;-81
2020/12/03 01:56:22;;;;;;;46.70;18.17;;;;;;;-1.01;84.96;98538.47;5138995;27;20046;-81
2020/12/03 01:58:49;;;;;;;43.20;18.60;;;;;;;-0.90;83.84;98533.94;5151063;27;20046;-81
2020/12/03 02:01:16;;;;;;;49.97;19.00;;;;;;;-1.02;84.09;98518.97;5139097;27;20046;-81
2020/12/03 02:03:46;;;;;;;52.60;18.97;;;;;;;-0.94;83.87;98516.50;5129819;27;20047;-81
2020/12/03 02:06:17;;;;;;;46.58;18.63;;;;;;;-0.82;84.43;98516.47;5139777;27;20097;-81
2020/12/03 02:08:43;;;;;;;57.33;21.60;;;;;;;-0.79;83.25;98508.19;5114281;27;20047;-81
2020/12/03 02:11:09;;;;;;;47.97;20.20;;;;;;;-0.99;83.62;98488.53;5132190;27;20035;-81
2020/12/03 02:13:36;;;;;;;53.40;20.43;;;;;;;-1.02;84.29;98489.63;5141844;27;20119;-81
2020/12/03 02:16:03;;;;;;;55.80;19.60;;;;;;;-1.03;84.62;98489.75;5131971;27;20043;-81
2020/12/03 02:18:29;;;;;;;48.77;21.13;;;;;;;-0.89;84.20;98505.44;5133197;27;20047;-81
2020/12/03 02:20:57;;;;;;;53.10;20.57;;;;;;;-0.97;84.35;98497.22;5151377;27;20057;-81
2020/12/03 02:23:23;;;;;;;50.57;21.10;;;;;;;-0.98;84.66;98498.19;5132890;27;20050;-81
2020/12/03 02:25:49;;;;;;;53.30;20.20;;;;;;;-1.12;84.78;98489.53;5132663;27;20047;-81
2020/12/03 02:28:15;;;;;;;51.33;19.67;;;;;;;-1.10;84.18;98476.06;5148224;27;20044;-81
2020/12/03 02:30:42;;;;;;;48.33;19.30;;;;;;;-0.99;83.91;98485.84;5151989;27;20047;-81
2020/12/03 02:33:08;;;;;;;54.67;20.97;;;;;;;-0.93;84.41;98504.84;5138571;27;20059;-81
2020/12/03 02:35:34;;;;;;;48.73;20.20;;;;;;;-1.00;83.51;98473.47;5132378;27;20586;-80
2020/12/03 02:38:01;;;;;;;49.33;19.80;;;;;;;-0.97;83.73;98475.88;5144684;27;20058;-81
2020/12/03 02:40:28;;;;;;;57.93;20.67;;;;;;;-1.10;83.65;98470.72;5132488;27;20043;-81
2020/12/03 02:42:54;;;;;;;55.50;19.57;;;;;;;-1.05;84.07;98481.88;5136865;27;20448;-81
2020/12/03 02:45:20;;;;;;;49.70;19.90;;;;;;;-1.11;84.60;98483.22;5149428;27;20391;-81
2020/12/03 02:47:47;;;;;;;47.73;19.13;;;;;;;-1.26;85.39;98471.16;5124343;27;20058;-81
2020/12/03 02:50:13;;;;;;;51.97;20.10;;;;;;;-1.14;84.53;98466.63;5143091;27;20050;-81
2020/12/03 02:52:39;;;;;;;45.57;18.50;;;;;;;-1.30;85.10;98459.88;5147426;27;20047;-81
2020/12/03 02:55:07;;;;;;;50.90;19.97;;;;;;;-1.17;84.15;98465.06;5132095;27;20042;-81
2020/12/03 02:57:33;;;;;;;46.40;19.20;;;;;;;-1.08;84.54;98474.13;5143530;27;20047;-81
2020/12/03 02:59:59;;;;;;;53.50;20.07;;;;;;;-1.07;84.40;98473.13;5133902;27;20042;-81
2020/12/03 03:02:26;;;;;;;60.00;20.87;;;;;;;-1.02;84.02;98467.41;5132990;27;20062;-81
2020/12/03 03:04:52;;;;;;;46.03;17.67;;;;;;;-1.12;84.06;98478.84;5132082;27;20073;-81
2020/12/03 03:07:18;;;;;;;55.30;20.60;;;;;;;-1.14;84.40;98458.63;5136649;27;20495;-81
2020/12/03 03:09:45;;;;;;;50.50;17.23;;;;;;;-1.13;84.43;98473.66;5132019;27;20368;-81
2020/12/03 03:12:12;;;;;;;50.10;19.17;;;;;;;-0.96;84.66;98483.75;5140045;27;20043;-81
2020/12/03 03:14:38;;;;;;;49.60;19.13;;;;;;;-0.99;84.27;98475.19;5131772;27;20053;-81
2020/12/03 03:17:05;;;;;;;48.07;17.07;;;;;;;-1.11;85.20;98461.03;5147305;27;20055;-81
2020/12/03 03:19:31;;;;;;;57.50;20.17;;;;;;;-1.07;84.94;98449.13;5132154;27;20043;-81
2020/12/03 03:21:58;;;;;;;49.27;19.53;;;;;;;-1.07;84.35;98447.31;5133717;27;20047;-81
2020/12/03 03:24:25;;;;;;;53.73;18.63;;;;;;;-0.94;84.18;98465.78;5136329;27;20066;-81
2020/12/03 03:26:52;;;;;;;45.00;17.93;;;;;;;-1.10;84.80;98465.38;5135613;27;20050;-81
2020/12/03 03:29:19;;;;;;;45.40;18.27;;;;;;;-1.08;85.80;98463.44;5139647;27;20046;-81
2020/12/03 03:31:45;;;;;;;50.73;19.10;;;;;;;-0.99;84.34;98464.50;5155944;27;20051;-81
2020/12/03 03:34:12;;;;;;;59.23;20.30;;;;;;;-1.02;84.72;98446.06;5155820;27;20486;-81
2020/12/03 03:36:38;;;;;;;56.23;20.63;;;;;;;-1.09;84.28;98451.91;5136098;27;20043;-80
2020/12/03 03:39:06;;;;;;;47.93;18.10;;;;;;;-0.94;84.38;98456.94;5135087;27;20051;-81
2020/12/03 03:41:33;;;;;;;49.67;19.50;;;;;;;-0.87;84.24;98463.47;5142015;27;20043;-80
2020/12/03 03:43:59;;;;;;;54.57;20.43;;;;;;;-0.91;84.49;98462.88;5135814;27;20053;-81
2020/12/03 03:46:26;;;;;;;49.20;20.40;;;;;;;-1.01;84.60;98437.09;5142377;27;20071;-81
2020/12/03 03:48:52;;;;;;;47.30;18.20;;;;;;;-1.17;85.29;98425.06;5155897;27;20047;-80
2020/12/03 03:51:18;;;;;;;49.23;18.20;;;;;;;-1.04;85.95;98464.88;5149524;27;20066;-81
2020/12/03 03:53:45;;;;;;;50.17;18.80;;;;;;;-1.05;85.32;98444.53;5135619;27;20051;-81
2020/12/03 03:56:12;;;;;;;43.67;17.50;;;;;;;-1.21;85.89;98439.59;5137726;27;20059;-81
2020/12/03 03:58:38;;;;;;;50.07;18.67;;;;;;;-1.09;85.64;98435.06;5138373;27;20491;-81
2020/12/03 04:01:04;;;;;;;52.27;18.77;;;;;;;-0.90;84.88;98450.38;5135043;27;20039;-81
2020/12/03 04:03:31;;;;;;;46.73;18.60;;;;;;;-1.02;85.01;98422.03;5135740;27;20125;-81
2020/12/03 04:05:58;;;;;;;46.87;17.73;;;;;;;-0.97;85.61;98457.22;5134810;27;20053;-81
2020/12/03 04:08:26;;;;;;;51.00;19.00;;;;;;;-0.95;85.54;98450.78;5135433;27;20050;-81
2020/12/03 04:10:53;;;;;;;49.07;18.67;;;;;;;-1.04;85.74;98440.03;5155929;27;20046;-81
2020/12/03 04:13:22;;;;;;;42.27;18.03;;;;;;;-1.02;86.13;98452.25;5154200;27;20050;-81
2020/12/03 04:15:48;;;;;;;48.53;18.10;;;;;;;-1.23;86.83;98412.22;5138266;27;20498;-80
2020/12/03 04:18:15;;;;;;;47.07;17.47;;;;;;;-1.07;86.81;98439.31;5134535;27;20043;-81
2020/12/03 04:20:43;;;;;;;48.17;18.90;;;;;;;-1.22;86.94;98413.91;5138635;27;20046;-81
2020/12/03 04:23:09;;;;;;;47.33;20.13;;;;;;;-1.18;86.53;98431.34;5139356;27;20095;-81
2020/12/03 04:25:35;;;;;;;41.87;17.00;;;;;;;-1.24;86.95;98413.19;5154135;27;20542;-81
2020/12/03 04:28:02;;;;;;;53.20;19.83;;;;;;;-1.16;86.61;98408.09;5151252;27;20398;-81
2020/12/03 04:30:28;;;;;;;45.50;17.70;;;;;;;-1.10;86.37;98412.03;5137887;27;20478;-81
2020/12/03 04:32:55;;;;;;;49.90;18.60;;;;;;;-1.22;86.66;98389.06;5151423;27;20051;-81
2020/12/03 04:35:21;;;;;;;47.57;18.07;;;;;;;-1.14;86.09;98394.63;5134584;27;20099;-81
2020/12/03 04:37:49;;;;;;;44.37;17.77;;;;;;;-1.14;85.94;98378.59;5134490;27;20494;-81
2020/12/03 04:40:28;;;;;;;50.70;18.47;;;;;;;-1.02;86.16;98398.91;5138780;27;20038;-81
2020/12/03 04:42:54;;;;;;;47.17;17.27;;;;;;;-1.14;85.96;98389.28;5134685;27;20051;-80
2020/12/03 04:45:33;;;;;;;52.30;18.13;;;;;;;-1.11;86.07;98392.53;5134021;27;20051;-80
2020/12/03 04:48:13;;;;;;;40.20;17.33;;;;;;;-1.08;86.43;98394.09;5144387;27;20050;-80
2020/12/03 04:50:43;;;;;;;;;;;;;;;-0.93;86.14;98403.44;5154387;27;20039;-80
2020/12/03 04:53:34;;;;;;;43.15;16.85;;;;;;;-1.10;85.77;98415.56;5143460;27;20375;-80
2020/12/03 04:56:05;;;;;;;57.23;20.33;;;;;;;-1.30;87.12;98387.88;5133828;27;20039;-80
2020/12/03 04:58:46;;;;;;;52.30;19.60;;;;;;;-1.02;86.50;98406.91;5137902;27;20499;-80
2020/12/03 05:01:36;;;;;;;54.83;17.97;;;;;;;-1.14;86.12;98384.78;5154656;27;20050;-80
2020/12/03 05:04:09;;;;;;;49.43;17.37;;;;;;;-1.12;86.27;98398.81;5148421;27;20050;-79
2020/12/03 05:06:54;;;;;;;49.57;18.40;;;;;;;-1.06;85.95;98394.78;5134924;27;20076;-80
2020/12/03 05:09:28;;;;;;;56.33;20.07;;;;;;;-0.86;85.43;98398.41;5135431;27;20395;-80
2020/12/03 05:11:56;;;;;;;56.20;18.07;;;;;;;-1.17;85.92;98381.53;5134883;27;20047;-80
2020/12/03 05:14:45;;;;;;;44.93;17.90;;;;;;;-1.07;86.54;98396.63;5136120;27;20552;-80
2020/12/03 05:17:30;;;;;;;52.13;18.80;;;;;;;-1.13;85.92;98365.13;5134404;27;20050;-81
2020/12/03 05:20:19;;;;;;;48.37;18.03;;;;;;;-1.04;86.05;98379.50;5134909;27;20081;-83
2020/12/03 05:22:55;;;;;;;52.97;18.40;;;;;;;-1.00;86.32;98385.44;5155667;27;20047;-79
2020/12/03 05:25:23;;;;;;;49.33;17.33;;;;;;;-1.01;86.29;98373.06;5155422;27;20578;-80
2020/12/03 05:27:52;;;;;;;49.63;17.77;;;;;;;-1.15;86.47;98363.56;5142828;27;20051;-80
2020/12/03 05:30:18;;;;;;;47.53;19.05;;;;;;;-0.95;84.98;98354.72;5133301;27;20051;-80
2020/12/03 05:32:46;;;;;;;48.90;18.90;;;;;;;-0.98;84.92;98356.78;5141408;27;20551;-79
2020/12/03 05:35:12;;;;;;;56.13;20.20;;;;;;;-0.92;84.76;98361.59;5133188;27;20047;-79
2020/12/03 05:37:40;;;;;;;51.83;19.47;;;;;;;-0.80;84.21;98368.56;5133403;27;20058;-79
2020/12/03 05:40:18;;;;;;;50.33;19.53;;;;;;;-0.84;84.36;98352.91;5133351;27;20047;-79
2020/12/03 05:42:45;;;;;;;52.70;19.93;;;;;;;-0.84;84.55;98347.59;5133503;27;20213;-79
2020/12/03 05:45:17;;;;;;;52.47;18.10;;;;;;;-1.08;85.83;98357.56;5146447;27;20050;-79
2020/12/03 05:47:46;;;;;;;48.40;19.40;;;;;;;-1.40;86.18;98325.66;5152991;27;20054;-79
2020/12/03 05:50:15;;;;;;;61.30;19.83;;;;;;;-1.27;85.16;98317.44;5139084;27;20530;-79
2020/12/03 05:52:57;;;;;;;51.85;20.10;;;;;;;-1.12;84.44;98328.63;5153788;27;20047;-80
2020/12/03 05:55:26;;;;;;;52.60;18.40;;;;;;;-1.02;84.24;98336.69;5141683;27;20054;-79
2020/12/03 05:57:53;;;;;;;48.57;17.43;;;;;;;-1.26;85.89;98303.16;5132697;27;20066;-79
2020/12/03 06:00:24;;;;;;;50.53;18.63;;;;;;;-1.23;85.02;98305.56;5135776;27;20039;-79
2020/12/03 06:03:17;;;;;;;48.13;18.90;;;;;;;-1.05;84.74;98318.25;5152373;27;20064;-79
2020/12/03 06:05:54;;;;;;;51.67;20.40;;;;;;;-1.06;84.96;98317.44;5139104;27;20039;-79
2020/12/03 06:08:32;;;;;;;48.93;18.90;;;;;;;-1.07;84.73;98319.25;5141356;27;20039;-79
2020/12/03 06:11:16;;;;;;;59.30;18.80;;;;;;;-1.16;85.20;98320.06;5133367;27;20043;-79
2020/12/03 06:14:00;;;;;;;50.57;18.67;;;;;;;-1.20;85.95;98323.13;5133664;27;20047;-79
2020/12/03 06:16:39;;;;;;;50.70;18.43;;;;;;;-1.19;86.00;98306.13;5143966;27;20047;-79
2020/12/03 06:19:28;;;;;;;52.97;18.67;;;;;;;-1.16;86.36;98305.84;5152217;27;20047;-79
2020/12/03 06:22:00;;;;;;;46.45;17.60;;;;;;;-1.17;86.74;98314.84;5138160;27;20043;-79
2020/12/03 06:24:46;;;;;;;49.23;17.90;;;;;;;-1.14;85.73;98307.41;5139030;27;20062;-79
2020/12/03 06:27:29;;;;;;;47.40;18.63;;;;;;;-0.96;85.67;98314.84;5131337;27;20054;-80
2020/12/03 06:30:06;;;;;;;47.57;18.07;;;;;;;-1.11;85.99;98315.16;5132715;27;20072;-79
2020/12/03 06:33:12;;;;;;;47.03;17.23;;;;;;;-1.11;86.32;98323.16;5131592;27;20051;-79
2020/12/03 06:35:43;;;;;;;42.60;16.50;;;;;;;-1.07;86.12;98318.41;5097477;27;20074;-79
2020/12/03 06:38:27;;;;;;;44.37;17.70;;;;;;;-1.01;85.70;98311.69;5131811;28;20048;-79
2020/12/03 06:41:01;;;;;;;47.53;17.43;;;;;;;-1.13;85.77;98303.78;5131802;27;20048;-80
2020/12/03 06:43:33;;;;;;;47.97;17.23;;;;;;;-1.15;86.02;98305.72;5132382;27;20053;-79
2020/12/03 06:46:39;;;;;;;50.43;17.73;;;;;;;-1.16;86.07;98290.72;5148822;27;20050;-79
2020/12/03 06:49:34;;;;;;;46.20;18.07;;;;;;;-0.99;84.79;98296.41;5145209;27;20042;-79
2020/12/03 06:52:19;;;;;;;43.47;17.60;;;;;;;-1.00;84.91;98284.88;5140558;27;20054;-80
2020/12/03 06:55:11;;;;;;;47.13;17.83;;;;;;;-0.86;84.34;98306.84;5100737;27;20039;-80
2020/12/03 06:58:18;;;;;;;50.93;19.33;;;;;;;-0.98;84.44;98309.63;5134808;27;20107;-79
2020/12/03 07:01:17;;;;;;;48.97;18.63;;;;;;;-1.03;84.48;98278.97;5094649;27;20403;-79
2020/12/03 07:04:26;;;;;;;55.00;19.63;;;;;;;-1.07;84.87;98275.72;5175138;27;20081;-80
2020/12/03 07:07:32;;;;;;;50.80;17.83;;;;;;;-0.89;85.32;98299.94;5142843;27;20050;-79
2020/12/03 07:10:31;;;;;;;53.70;19.13;;;;;;;-0.97;84.55;98268.59;5104087;27;20106;-79
2020/12/03 07:13:30;;;;;;;59.20;19.58;;;;;;;-1.07;84.71;98254.38;5142135;27;20054;-79
2020/12/03 07:16:43;;;;;;;51.80;16.50;;;;;;;-1.02;85.37;98261.97;5125950;27;20502;-80
2020/12/03 07:19:41;;;;;;;42.33;17.00;;;;;;;-1.05;85.01;98259.56;5130239;27;20046;-80
2020/12/03 07:22:22;;;;;;;43.97;17.07;;;;;;;-0.96;84.08;98259.63;5147024;27;20043;-79
2020/12/03 07:24:50;;;;;;;47.33;17.43;;;;;;;-0.96;83.87;98240.13;5139029;27;20498;-82
2020/12/03 07:27:55;;;;;;;54.03;18.07;;;;;;;-0.71;83.98;98268.13;5157316;27;20081;-79
2020/12/03 07:30:34;;;;;;;50.73;16.87;;;;;;;-0.77;83.66;98274.03;5141322;27;20054;-78
2020/12/03 07:33:05;;;;;;;41.60;17.60;;;;;;;-0.92;83.70;98249.53;5142343;27;20427;-78
2020/12/03 07:35:42;;;;;;;40.60;15.87;;;;;;;-0.93;84.79;98266.53;5148329;27;20059;-79
2020/12/03 07:38:18;;;;;;;40.03;15.97;;;;;;;-0.91;83.90;98245.88;5142376;27;20039;-78
2020/12/03 07:40:45;;;;;;;43.03;16.20;;;;;;;-0.87;84.33;98241.97;5136433;27;20058;-77
2020/12/03 07:43:18;;;;;;;50.10;16.57;;;;;;;-0.65;83.66;98261.41;5136584;27;20054;-77
2020/12/03 07:45:47;;;;;;;46.20;17.43;;;;;;;-0.60;83.72;98260.03;5148768;27;20065;-78
2020/12/03 07:48:18;;;;;;;38.72;16.38;;;;;;;-0.73;83.39;98238.09;5165545;27;20042;-77
2020/12/03 07:51:10;;;;;;;48.20;17.03;;;;;;;-0.70;83.63;98231.63;5162625;27;20054;-77
2020/12/03 07:53:37;;;;;;;42.13;16.13;;;;;;;-0.61;83.05;98247.66;5160257;27;20046;-77
2020/12/03 07:56:36;;;;;;;49.30;18.67;;;;;;;-0.57;83.88;98261.59;5177769;27;20077;-78
2020/12/03 07:59:40;;;;;;;55.27;19.50;;;;;;;-0.56;83.59;98255.25;5177723;27;20053;-77
2020/12/03 08:03:00;;;;;;;39.00;16.40;;;;;;;-0.55;83.77;98243.59;5139074;27;20058;-77
2020/12/03 08:05:45;;;;;;;42.45;16.08;;;;;;;-0.57;82.93;98242.91;5082628;28;20102;-77
2020/12/03 08:08:31;;;;;;;44.63;16.10;;;;;;;-0.52;83.75;98242.50;5151434;27;20057;-77
2020/12/03 08:10:57;;;;;;;38.73;16.07;;;;;;;-0.46;83.48;98234.78;5156840;27;20047;-77
2020/12/03 08:13:28;;;;;;;37.30;14.00;;;;;;;-0.38;82.59;98237.59;5138820;27;20099;-78
2020/12/03 08:15:57;;;;;;;40.17;14.77;;;;;;;-0.33;82.72;98229.19;5159949;27;20088;-78
2020/12/03 08:18:42;;;;;;;43.10;16.60;;;;;;;-0.31;82.50;98235.22;5157309;27;20051;-78
2020/12/03 08:21:09;;;;;;;42.37;16.47;;;;;;;-0.38;82.35;98234.06;5163073;27;20049;-77
